D/T METAR WX W/SPE G/SPE TEMP DEWP FEEL
25/05/22 00:20 EGDY 242320Z 22005KT 9999 FEW030 10/07 Q1012 NOSIG RMK BLU BLU 5.8mph 10°C 7°C 10.0°C
24/05/22 23:50 EGDY 242250Z 23004KT 9999 FEW030 09/07 Q1012 NOSIG RMK BLU BLU 4.6mph 9°C 7°C 9.0°C
24/05/22 23:20 EGDY 242220Z 25004KT 9999 FEW030 09/07 Q1012 NOSIG RMK BLU BLU 4.6mph 9°C 7°C 9.0°C
24/05/22 22:50 EGDY 242150Z 25006KT 9999 FEW030 10/08 Q1012 NOSIG RMK BLU BLU 6.9mph 10°C 8°C 10.4°C
24/05/22 22:21 EGDY 242121Z 24005KT 9999 FEW030 10/07 Q1012 NOSIG RMK BLU BLU 5.8mph 10°C 7°C 10.0°C
24/05/22 21:50 EGDY 242050Z 25006KT CAVOK 11/07 Q1012 NOSIG RMK BLU BLU 6.9mph 11°C 7°C 11.0°C
24/05/22 21:20 EGDY 242020Z 25005KT CAVOK 11/08 Q1011 NOSIG RMK BLU BLU 5.8mph 11°C 8°C 11.4°C
24/05/22 20:50 EGDY 241950Z 28004KT 9999 FEW030 12/08 Q1011 NOSIG RMK BLU BLU 4.6mph 12°C 8°C 12.4°C
24/05/22 20:20 EGDY 241920Z 29007KT 9999 FEW030 13/07 Q1011 NOSIG RMK BLU BLU 8.1mph 13°C 7°C 13.0°C
24/05/22 19:50 EGDY 241850Z 30009KT 9999 FEW030 14/05 Q1011 NOSIG RMK BLU BLU 10.4mph 14°C 5°C 13.3°C
24/05/22 18:50 EGDY 241750Z AUTO 31011KT 9999 NCD 15/04 Q1010 12.7mph 15°C 4°C 14.0°C
24/05/22 17:50 EGDY 241650Z AUTO 31012KT 9999 FEW050/// 16/06 Q1009 13.8mph 16°C 6°C 15.6°C
24/05/22 17:20 EGDY 241620Z 30013KT 9999 FEW036 16/07 Q1009 NOSIG RMK BLU BLU 15.0mph 16°C 7°C 16.0°C
24/05/22 16:50 EGDY 241550Z 31014KT 9999 FEW036 16/08 Q1009 NOSIG RMK BLU BLU 16.1mph 16°C 8°C 16.4°C
24/05/22 16:20 EGDY 241520Z 31013KT 9999 FEW040 17/07 Q1009 NOSIG RMK BLU BLU 15.0mph 17°C 7°C 17.0°C
24/05/22 15:50 EGDY 241450Z 30012KT 9999 FEW036 SCT050 17/08 Q1008 NOSIG RMK BLU BLU 13.8mph 17°C 8°C 17.4°C
24/05/22 15:24 EGDY 241424Z 31012KT 9999 FEW036 SCT050 16/06 Q1008 NOSIG RMK BLU BLU 13.8mph 16°C 6°C 15.6°C
24/05/22 14:50 EGDY 241350Z AUTO 28012KT 9999 BKN048/// 17/08 Q1008 13.8mph 17°C 8°C 17.4°C
24/05/22 14:21 EGDY 241321Z 30011KT 9999 FEW025 16/07 Q1008 NOSIG RMK BLU BLU 12.7mph 16°C 7°C 16.0°C
24/05/22 13:50 EGDY 241250Z 30011KT 9999 SCT030 16/06 Q1008 NOSIG RMK BLU BLU 12.7mph 16°C 6°C 15.6°C
24/05/22 13:21 EGDY 241221Z 30013KT 9999 FEW018CB 16/08 Q1008 NOSIG RMK BLU BLU 15.0mph 16°C 8°C 16.4°C
24/05/22 12:50 EGDY 241150Z 30010KT 9999 FEW018CB 16/11 Q1007 NOSIG RMK BLU BLU 11.5mph 16°C 11°C 17.8°C
24/05/22 12:20 EGDY 241120Z 22006KT 9999 FEW018CB 14/10 Q1007 NOSIG RMK BLU BLU 6.9mph 14°C 10°C 15.3°C
24/05/22 11:50 EGDY 241050Z 24006KT 9999 FEW010 SCT018CB 12/09 Q1007 TEMPO 3500 +SHRAGS BKN018CB RMK WHT TEMPO YLO1 6.9mph 12°C 9°C 12.8°C
24/05/22 11:23 EGDY 241023Z 27007KT 8000 -SHRA FEW010 BKN018CB BKN040 12/09 Q1007 TEMPO 3500 +SHRAGS BKN018CB RMK WHT TEMPO YLO1 -SHRA 8.1mph 12°C 9°C 12.8°C
24/05/22 10:50 EGDY 240950Z 24008KT 9999 SHRA FEW010 BKN018CB 11/09 Q1007 TEMPO 3500 +SHRAGS BKN018CB RMK WHT TEMPO YLO1 SHRA 9.2mph 11°C 9°C 11.8°C
24/05/22 10:20 EGDY 240920Z 35002KT 9999 -SHRA FEW010 BKN018CB BKN030 12/10 Q1007 TEMPO 3500 +SHRAGS BKN018CB RMK WHT TEMPO YLO1 -SHRA 2.3mph 12°C 10°C 13.3°C
24/05/22 09:50 EGDY 240850Z 03005KT 9999 -SHRA FEW010 SCT018CB BKN025 10/08 Q1007 TEMPO 3500 +SHRAGS BKN018CB RMK WHT TEMPO YLO1 -SHRA 5.8mph 10°C 8°C 10.4°C
24/05/22 09:36 EGDY 240836Z 32004KT 3500 +SHGS SCT010 BKN018CB 12/10 Q1007 BECMG 9999 SCT018CB RMK YLO1 BECMG WHT +SHGS 4.6mph 12°C 10°C 13.3°C
24/05/22 08:50 EGDY 240750Z 27005KT 9999 FEW012 SCT018CB BKN040 12/10 Q1006 BECMG 9999 FEW018CB RMK WHT BECMG BLU 5.8mph 12°C 10°C 13.3°C
24/05/22 08:20 EGDY 240720Z 28008KT 5000 -SHRA FEW012 SCT018CB BKN050 12/10 Q1006 BECMG 9999 FEW018CB RMK WHT BECMG BLU -SHRA 9.2mph 12°C 10°C 13.3°C
24/05/22 07:50 EGDY 240650Z 25006KT 9999 FEW012 FEW015CB BKN060 11/10 Q1005 BLU TEMPO 5000 SHRA SCT012 SCT015CB RMK BLU TEMPO GRN 6.9mph 11°C 10°C 12.3°C
24/05/22 07:26 EGDY 240626Z 26006KT 9999 FEW008 FEW018TCU SCT050 10/09 Q1005 NOSIG RMK BLU BLU 6.9mph 10°C 9°C 10.8°C
24/05/22 06:50 EGDY 240550Z 26007KT 9999 -SHRA FEW018TCU BKN050 10/09 Q1005 NOSIG RMK BLU BLU -SHRA 8.1mph 10°C 9°C 10.8°C
24/05/22 06:21 EGDY 240521Z 25005KT 9999 FEW020 SCT050 09/08 Q1004 NOSIG RMK BLU BLU 5.8mph 9°C 8°C 9.4°C
24/05/22 05:50 EGDY 240450Z 25006KT 9999 FEW020CB 09/08 Q1004 NOSIG RMK BLU BLU 6.9mph 9°C 8°C 9.4°C
24/05/22 05:20 EGDY 240420Z 25007KT 9999 VCSH FEW020 BKN050 09/08 Q1003 NOSIG RMK BLU BLU VCSH 8.1mph 9°C 8°C 9.4°C
24/05/22 04:50 EGDY 240350Z 25006KT 9999 FEW020 BKN050 09/08 Q1003 NOSIG RMK BLU BLU 6.9mph 9°C 8°C 9.4°C
24/05/22 04:20 EGDY 240320Z 25006KT 9999 FEW020 BKN050 09/08 Q1003 BLU 6.9mph 9°C 8°C 9.4°C
24/05/22 03:50 EGDY 240250Z AUTO 24006KT 9999 FEW042/// BKN048/// 09/08 Q1003 RERA 6.9mph 9°C 8°C 9.4°C
24/05/22 02:50 EGDY 240150Z AUTO 26006KT 9999 FEW014/// BKN041/// 09/08 Q1003 REDZ 6.9mph 9°C 8°C 9.4°C
24/05/22 01:50 EGDY 240050Z AUTO 24005KT 9999 FEW050/// 09/08 Q1003 5.8mph 9°C 8°C 9.4°C
24/05/22 00:50 EGDY 232350Z AUTO 24005KT 9999 SCT024/// BKN050/// 10/09 Q1003 5.8mph 10°C 9°C 10.8°C
24/05/22 00:20 EGDY 232320Z 22004KT 9999 FEW025 BKN060 10/09 Q1003 TEMPO 7000 SHRA SCT020 RMK BLU TEMPO WHT 4.6mph 10°C 9°C 10.8°C
23/05/22 23:50 EGDY 232250Z 23002KT 9999 BKN040 10/09 Q1003 TEMPO 7000 SHRA SCT020 RMK BLU TEMPO WHT 2.3mph 10°C 9°C 10.8°C
23/05/22 23:21 EGDY 232221Z 26003KT 9999 FEW025 SCT060 BKN140 10/09 Q1002 TEMPO 7000 SHRA SCT020 RMK BLU TEMPO WHT 3.5mph 10°C 9°C 10.8°C
23/05/22 22:50 EGDY 232150Z 25004KT 9999 FEW025 BKN060 11/09 Q1003 TEMPO 7000 SHRA SCT020 RMK BLU TEMPO WHT 4.6mph 11°C 9°C 11.8°C
23/05/22 22:20 EGDY 232120Z 25005KT 9999 FEW020 SCT035 BKN040 11/09 Q1003 TEMPO 7000 SHRA SCT020 RMK BLU TEMPO WHT 5.8mph 11°C 9°C 11.8°C
23/05/22 21:50 EGDY 232050Z 25005KT 9999 FEW020 SCT035 BKN040 11/10 Q1003 TEMPO 7000 SHRA SCT020 RMK BLU TEMPO WHT 5.8mph 11°C 10°C 12.3°C
23/05/22 21:20 EGDY 232020Z 22003KT 9999 FEW020CB BKN030 BKN035 10/09 Q1002 TEMPO 7000 SHRA SCT020 RMK BLU TEMPO WHT 3.5mph 10°C 9°C 10.8°C
23/05/22 20:50 EGDY 231950Z 28001KT 9999 FEW020CB BKN030 10/09 Q1002 TEMPO 4000 SHRA SCT020 RMK BLU TEMPO GRN 1.2mph 10°C 9°C 10.8°C
23/05/22 20:21 EGDY 231921Z 20003KT 9999 FEW018CB BKN025 10/09 Q1002 TEMPO 4000 SHRA SCT020 RMK BLU TEMPO GRN 3.5mph 10°C 9°C 10.8°C
23/05/22 19:50 EGDY 231850Z 22003KT 9999 FEW018CB BKN025 10/09 Q1002 TEMPO 4000 SHRA SCT020 RMK BLU TEMPO GRN 3.5mph 10°C 9°C 10.8°C
23/05/22 18:50 EGDY 231750Z AUTO 22004KT 9999 BKN050/// SCT120/// 12/10 Q1002 RERA 4.6mph 12°C 10°C 13.3°C
23/05/22 17:50 EGDY 231650Z AUTO 21005KT 9999 -RA OVC050/// 12/10 Q1002 -RA 5.8mph 12°C 10°C 13.3°C
23/05/22 17:20 EGDY 231620Z 24005KT 9999 -RA FEW012 OVC060 12/10 Q1002 TEMPO 4000 SHRA SCT020 RMK BLU TEMPO GRN -RA 5.8mph 12°C 10°C 13.3°C
23/05/22 16:50 EGDY 231550Z 25005KT 9999 -RA FEW020 OVC060 12/10 Q1002 TEMPO 4000 SHRA SCT020 RMK BLU TEMPO GRN -RA 5.8mph 12°C 10°C 13.3°C
23/05/22 16:20 EGDY 231520Z 26008KT 9999 -SHRA FEW012 OVC050 12/10 Q1002 TEMPO 4000 SHRA SCT020 RMK BLU TEMPO GRN -SHRA 9.2mph 12°C 10°C 13.3°C
23/05/22 15:50 EGDY 231450Z 28009KT 8000 -SHRA FEW012 FEW020TCU OVC050 12/10 Q1002 TEMPO 4000 SHRA SCT020 RMK BLU TEMPO GRN -SHRA 10.4mph 12°C 10°C 13.3°C
23/05/22 15:40 EGDY 231440Z 28013KT 4000 SHRA FEW012 SCT020TCU OVC050 12/10 Q1003 TEMPO 7000 -RA SCT020 RMK GRN TEMPO WHT SHRA 15.0mph 12°C 10°C 13.3°C
23/05/22 14:50 EGDY 231350Z 29012KT 8000 -SHRA FEW020 SCT050 BKN090 14/10 Q1002 TEMPO 6000 -SHRA SCT020 RMK BLU TEMPO WHT -SHRA 13.8mph 14°C 10°C 15.3°C
23/05/22 14:20 EGDY 231320Z 31008KT 9999 -RA FEW020 BKN090 15/11 Q1002 TEMPO 8000 -SHRA RMK BLU TEMPO WHT -RA 9.2mph 15°C 11°C 16.8°C
23/05/22 13:50 EGDY 231250Z 30011KT 9999 -RA FEW020 SCT035 BKN080 14/10 Q1002 TEMPO 8000 -SHRA RMK BLU TEMPO WHT -RA 12.7mph 14°C 10°C 15.3°C
23/05/22 13:20 EGDY 231220Z 31011KT 9999 FEW020 BKN100 15/09 Q1003 TEMPO 8000 -SHRA RMK BLU TEMPO WHT 12.7mph 15°C 9°C 15.8°C
23/05/22 12:50 EGDY 231150Z 31008KT 9999 FEW020 BKN100 15/10 Q1002 TEMPO 8000 -SHRA RMK BLU BLU 9.2mph 15°C 10°C 16.3°C
23/05/22 12:20 EGDY 231120Z 30008KT 9999 FEW020 BKN100 15/10 Q1003 TEMPO 8000 -SHRA RMK BLU BLU 9.2mph 15°C 10°C 16.3°C
23/05/22 11:50 EGDY 231050Z 30010KT 9999 FEW020 SCT030 BKN100 15/10 Q1003 TEMPO 8000 -SHRA RMK BLU BLU 11.5mph 15°C 10°C 16.3°C
23/05/22 11:21 EGDY 231021Z 30011KT 9999 FEW020 BKN100 15/09 Q1003 NOSIG RMK BLU BLU 12.7mph 15°C 9°C 15.8°C
23/05/22 10:50 EGDY 230950Z 30007KT 9999 FEW020 BKN100 15/09 Q1003 NOSIG RMK BLU BLU 8.1mph 15°C 9°C 15.8°C
23/05/22 10:21 EGDY 230921Z 29005KT 9999 FEW020 SCT030 BKN100 15/10 Q1003 TEMPO 7000 -SHRA SCT020 RMK BLU TEMPO WHT 5.8mph 15°C 10°C 16.3°C
23/05/22 09:50 EGDY 230850Z 28008KT 9999 FEW020 SCT030 BKN100 15/10 Q1003 TEMPO 7000 -SHRA SCT020 RMK BLU TEMPO WHT 9.2mph 15°C 10°C 16.3°C
23/05/22 09:20 EGDY 230820Z 30008KT 9999 FEW018 SCT035 BKN100 14/10 Q1004 TEMPO 7000 -SHRA SCT020 RMK BLU TEMPO WHT 9.2mph 14°C 10°C 15.3°C
23/05/22 08:50 EGDY 230750Z 29008KT 9999 FEW018 SCT035 BKN100 14/10 Q1004 NOSIG RMK BLU BLU 9.2mph 14°C 10°C 15.3°C
23/05/22 08:20 EGDY 230720Z 28007KT 9999 FEW015 BKN100 13/11 Q1004 NOSIG RMK BLU BLU 8.1mph 13°C 11°C 14.8°C
23/05/22 07:50 EGDY 230650Z 29006KT 9999 FEW015 BKN100 13/11 Q1004 NOSIG RMK BLU BLU 6.9mph 13°C 11°C 14.8°C
23/05/22 07:20 EGDY 230620Z 31004KT 9999 FEW010 BKN120 13/11 Q1004 TEMPO SCT020 RMK BLU TEMPO WHT 4.6mph 13°C 11°C 14.8°C
23/05/22 06:50 EGDY 230550Z 32005KT 9999 FEW010 SCT050 BKN100 13/11 Q1004 TEMPO SCT020 RMK BLU TEMPO WHT 5.8mph 13°C 11°C 14.8°C
23/05/22 05:50 EGDY 230450Z 31003KT 9999 FEW012 BKN050 13/12 Q1005 BLU 3.5mph 13°C 12°C 15.3°C
23/05/22 04:50 EGDY 230350Z 26002KT 9999 SCT020 BKN025 13/12 Q1005 WHT 2.3mph 13°C 12°C 15.3°C
23/05/22 03:50 EGDY 230250Z AUTO 31005KT 3100 DZ SCT007/// BKN016/// BKN021/// 13/12 Q1006 DZ 5.8mph 13°C 12°C 15.3°C
23/05/22 02:50 EGDY 230150Z AUTO 27002KT 9999 SCT021/// BKN033/// 13/11 Q1006 2.3mph 13°C 11°C 14.8°C
23/05/22 01:50 EGDY 230050Z AUTO 18002KT 9999 FEW032/// BKN080/// 13/11 Q1006 2.3mph 13°C 11°C 14.8°C
23/05/22 00:50 EGDY 222350Z AUTO 21003KT 9999 FEW032/// OVC070/// 13/11 Q1007 3.5mph 13°C 11°C 14.8°C
22/05/22 23:50 EGDY 222250Z AUTO 22001KT 9999 OVC070/// 13/11 Q1008 1.2mph 13°C 11°C 14.8°C
22/05/22 22:50 EGDY 222150Z AUTO 30002KT 9999 BKN070/// 14/11 Q1008 2.3mph 14°C 11°C 15.8°C
22/05/22 21:50 EGDY 222050Z AUTO 31004KT 9999 SCT042/// BKN080/// 14/11 Q1008 4.6mph 14°C 11°C 15.8°C
22/05/22 20:50 EGDY 221950Z AUTO 29004KT 9999 SCT042/// 14/09 Q1009 4.6mph 14°C 9°C 14.8°C
22/05/22 19:50 EGDY 221850Z AUTO 21006KT 9999 FEW070/// 15/08 Q1009 6.9mph 15°C 8°C 15.4°C
22/05/22 18:50 EGDY 221750Z AUTO 22006KT 9999 SCT070/// BKN110/// 17/08 Q1009 6.9mph 17°C 8°C 17.4°C
22/05/22 17:50 EGDY 221650Z AUTO 20008KT 9999 SCT050/// BKN090/// 18/09 Q1009 9.2mph 18°C 9°C 18.8°C
22/05/22 16:50 EGDY 221550Z AUTO 21006KT 9999 BKN080/// 20/08 Q1010 6.9mph 20°C 8°C 20.4°C
22/05/22 15:50 EGDY 221450Z AUTO 20007KT 9999 FEW080/// 19/09 Q1011 8.1mph 19°C 9°C 19.8°C
22/05/22 14:50 EGDY 221350Z AUTO 21009KT 9999 FEW130/// 20/10 Q1011 10.4mph 20°C 10°C 21.3°C
22/05/22 13:50 EGDY 221250Z AUTO 18010KT 9999 NCD 20/11 Q1012 11.5mph 20°C 11°C 21.8°C
22/05/22 12:50 EGDY 221150Z AUTO 17005KT 9999 FEW100/// 20/09 Q1012 5.8mph 20°C 9°C 20.8°C
22/05/22 11:50 EGDY 221050Z AUTO 17004KT 9999 NCD 19/08 Q1013 4.6mph 19°C 8°C 19.4°C